createdAt,value
2019-04-06T00:00:57.647Z,3.86
2019-04-06T00:03:27.842Z,3.71
2019-04-06T00:05:58.323Z,3.59
2019-04-06T00:08:28.520Z,3.59
2019-04-06T00:10:59.006Z,3.58
2019-04-06T00:13:29.214Z,3.57
2019-04-06T00:15:59.540Z,3.66
2019-04-06T00:18:29.644Z,3.62
2019-04-06T00:20:59.843Z,3.54
2019-04-06T00:23:30.138Z,3.57
2019-04-06T00:26:00.453Z,3.51
2019-04-06T00:28:30.599Z,3.61
2019-04-06T00:31:08.776Z,3.47
2019-04-06T00:33:38.998Z,3.37
2019-04-06T00:36:09.289Z,3.36
2019-04-06T00:38:39.572Z,3.40
2019-04-06T00:41:09.917Z,3.38
2019-04-06T00:43:40.038Z,3.41
2019-04-06T00:46:10.355Z,3.40
2019-04-06T00:48:40.687Z,3.39
2019-04-06T00:51:10.943Z,3.32
2019-04-06T00:53:41.095Z,3.18
2019-04-06T00:56:11.378Z,3.22
2019-04-06T00:58:41.518Z,3.16
2019-04-06T01:03:13.583Z,3.13
2019-04-06T01:05:43.978Z,3.07
2019-04-06T01:08:14.237Z,3.10
2019-04-06T01:10:44.347Z,3.10
2019-04-06T01:13:14.497Z,3.02
2019-04-06T01:15:44.770Z,3.09
2019-04-06T01:18:15.014Z,3.05
2019-04-06T01:20:45.408Z,2.94
2019-04-06T01:23:15.775Z,2.97
2019-04-06T01:25:45.934Z,2.86
2019-04-06T01:28:16.191Z,2.90
2019-04-06T01:30:46.591Z,2.88
2019-04-06T01:33:16.928Z,2.83
2019-04-06T01:35:47.308Z,2.74
2019-04-06T01:38:17.519Z,2.75
2019-04-06T01:40:47.810Z,2.71
2019-04-06T01:43:18.257Z,2.62
2019-04-06T01:45:48.683Z,2.61
2019-04-06T01:48:18.992Z,2.59
2019-04-06T01:50:49.257Z,2.54
2019-04-06T01:53:19.747Z,2.59
2019-04-06T01:55:50.187Z,2.71
2019-04-06T01:58:20.420Z,2.59
2019-04-06T02:01:01.866Z,2.54
2019-04-06T02:03:32.077Z,2.60
2019-04-06T02:06:02.746Z,2.73
2019-04-06T02:08:32.980Z,2.88
2019-04-06T02:11:03.260Z,2.86
2019-04-06T02:13:33.515Z,2.76
2019-04-06T02:16:03.730Z,2.74
2019-04-06T02:18:34.046Z,2.80
2019-04-06T02:21:04.640Z,2.99
2019-04-06T02:23:34.936Z,2.92
2019-04-06T02:26:05.225Z,2.85
2019-04-06T02:28:35.444Z,2.89
2019-04-06T02:31:15.826Z,2.92
2019-04-06T02:34:20.055Z,2.86
2019-04-06T02:37:02.507Z,2.82
2019-04-06T02:39:57.402Z,2.61
2019-04-06T02:42:32.290Z,2.75
2019-04-06T02:45:02.609Z,2.72
2019-04-06T02:47:32.831Z,2.69
2019-04-06T02:50:03.250Z,2.60
2019-04-06T02:52:33.438Z,2.52
2019-04-06T02:55:03.785Z,2.49
2019-04-06T02:57:33.992Z,2.45
2019-04-06T03:03:13.571Z,1.97
2019-04-06T03:05:43.974Z,2.15
2019-04-06T03:08:14.470Z,2.21
2019-04-06T03:10:44.939Z,2.25
2019-04-06T03:13:15.161Z,2.17
2019-04-06T03:15:45.806Z,2.09
2019-04-06T03:18:16.007Z,2.16
2019-04-06T03:20:46.376Z,2.11
2019-04-06T03:23:16.660Z,2.13
2019-04-06T03:25:46.890Z,2.13
2019-04-06T03:28:17.093Z,2.08
2019-04-06T03:30:47.295Z,2.06
2019-04-06T03:33:17.613Z,2.00
2019-04-06T03:35:49.885Z,1.95
2019-04-06T03:38:19.880Z,1.97
2019-04-06T03:40:50.065Z,1.90
2019-04-06T03:43:20.239Z,1.86
2019-04-06T03:45:50.496Z,1.83
2019-04-06T03:48:20.675Z,1.84
2019-04-06T03:50:50.841Z,1.73
2019-04-06T03:53:20.974Z,1.69
2019-04-06T03:55:51.339Z,1.73
2019-04-06T03:58:21.374Z,1.82
2019-04-06T04:00:51.584Z,1.82
2019-04-06T04:03:21.705Z,1.83
2019-04-06T04:05:52.004Z,1.74
2019-04-06T04:08:22.373Z,1.78
2019-04-06T04:10:52.589Z,1.77
2019-04-06T04:13:22.716Z,1.76
2019-04-06T04:15:56.386Z,1.72
2019-04-06T04:18:24.833Z,1.65
2019-04-06T04:20:55.132Z,1.62
2019-04-06T04:23:25.353Z,1.63
2019-04-06T04:25:55.559Z,1.60
2019-04-06T04:28:25.686Z,1.55
2019-04-06T04:30:55.886Z,1.51
2019-04-06T04:33:26.334Z,1.51
2019-04-06T04:35:56.918Z,1.57
2019-04-06T04:38:27.176Z,1.53
2019-04-06T04:40:57.443Z,1.52
2019-04-06T04:43:27.675Z,1.52
2019-04-06T04:45:57.785Z,1.54
2019-04-06T04:48:28.061Z,1.56
2019-04-06T04:50:58.296Z,1.53
2019-04-06T04:53:28.598Z,1.45
2019-04-06T04:55:58.884Z,1.53
2019-04-06T04:58:28.983Z,1.51
2019-04-06T05:03:13.443Z,1.37
2019-04-06T05:05:43.889Z,1.48
2019-04-06T05:08:14.272Z,1.67
2019-04-06T05:10:44.623Z,1.66
2019-04-06T05:13:14.939Z,1.79
2019-04-06T05:16:11.283Z,1.83
2019-04-06T05:18:42.957Z,1.83
2019-04-06T05:21:13.898Z,1.93
2019-04-06T05:23:44.116Z,2.01
2019-04-06T05:26:14.250Z,2.94
2019-04-06T05:28:44.500Z,2.47
2019-04-06T05:31:14.675Z,2.43
2019-04-06T05:33:44.946Z,2.34
2019-04-06T05:36:15.174Z,2.43
2019-04-06T05:38:45.481Z,2.52
2019-04-06T05:41:15.727Z,2.63
2019-04-06T05:43:45.910Z,2.80
2019-04-06T05:46:16.066Z,3.14
2019-04-06T05:48:46.453Z,2.94
2019-04-06T05:51:16.624Z,3.02
2019-04-06T05:53:46.837Z,3.15
2019-04-06T05:56:17.192Z,3.30
2019-04-06T05:58:47.329Z,3.47
2019-04-06T06:01:17.477Z,3.56
2019-04-06T06:03:47.742Z,3.72
2019-04-06T06:06:18.157Z,3.88
2019-04-06T06:08:48.323Z,4.09
2019-04-06T06:11:18.579Z,4.16
2019-04-06T06:13:48.930Z,4.37
2019-04-06T06:16:19.328Z,4.43
2019-04-06T06:18:49.666Z,4.56
2019-04-06T06:21:19.917Z,4.56
2019-04-06T06:23:50.327Z,5.73
2019-04-06T06:26:20.874Z,5.19
2019-04-06T06:28:51.077Z,5.11
2019-04-06T06:31:21.418Z,5.21
2019-04-06T06:33:51.788Z,5.28
2019-04-06T06:36:22.072Z,5.54
2019-04-06T06:38:52.338Z,5.63
2019-04-06T06:41:22.699Z,5.86
2019-04-06T06:43:52.882Z,6.00
2019-04-06T06:46:23.279Z,6.09
2019-04-06T06:48:53.553Z,6.17
2019-04-06T06:51:23.800Z,6.53
2019-04-06T06:53:55.079Z,6.53
2019-04-06T06:56:25.355Z,6.58
2019-04-06T06:58:55.739Z,6.68
2019-04-06T07:03:13.271Z,6.77
2019-04-06T07:05:43.667Z,6.88
2019-04-06T07:08:14.042Z,7.20
2019-04-06T07:10:44.507Z,7.19
2019-04-06T07:13:14.736Z,7.20
2019-04-06T07:15:45.284Z,7.41
2019-04-06T07:18:15.441Z,7.47
2019-04-06T07:20:45.980Z,7.60
2019-04-06T07:23:16.471Z,7.74
2019-04-06T07:25:56.915Z,7.69
2019-04-06T07:28:18.823Z,7.98
2019-04-06T07:30:49.123Z,7.95
2019-04-06T07:33:19.529Z,8.14
2019-04-06T07:35:49.779Z,8.44
2019-04-06T07:38:20.055Z,8.24
2019-04-06T07:40:50.234Z,8.58
2019-04-06T07:43:20.538Z,8.48
2019-04-06T07:45:50.870Z,8.55
2019-04-06T07:48:21.015Z,8.42
2019-04-06T07:50:51.524Z,8.24
2019-04-06T07:53:21.767Z,8.43
2019-04-06T07:55:51.963Z,8.57
2019-04-06T07:58:22.168Z,8.96
2019-04-06T08:00:52.625Z,9.12
2019-04-06T08:03:23.896Z,9.27
2019-04-06T08:05:54.362Z,9.39
2019-04-06T08:08:24.638Z,9.55
2019-04-06T09:03:13.092Z,11.38
2019-04-06T09:05:43.491Z,12.14
2019-04-06T09:08:13.637Z,11.78
2019-04-06T09:10:43.937Z,12.47
2019-04-06T09:13:14.281Z,11.47
2019-04-06T09:15:44.664Z,12.01
2019-04-06T09:18:14.951Z,11.85
2019-04-06T09:20:45.202Z,12.24
2019-04-06T09:23:15.364Z,12.23
2019-04-06T09:25:45.779Z,12.14
2019-04-06T09:28:15.885Z,11.70
2019-04-06T09:30:46.262Z,12.05
2019-04-06T09:33:16.443Z,11.97
2019-04-06T09:35:46.891Z,11.96
2019-04-06T09:38:19.935Z,11.90
2019-04-06T09:40:51.133Z,12.49
2019-04-06T09:43:21.523Z,12.06
2019-04-06T11:03:48.894Z,13.41
2019-04-06T13:03:36.768Z,14.72
2019-04-06T13:06:25.947Z,14.71
2019-04-06T13:09:14.679Z,14.59
2019-04-06T13:11:52.848Z,14.04
2019-04-06T13:14:37.474Z,14.45
2019-04-06T13:17:35.775Z,14.89
2019-04-06T13:20:25.743Z,15.14
2019-04-06T13:23:15.019Z,15.07
2019-04-06T13:25:56.979Z,15.43
2019-04-06T13:28:38.122Z,14.97
2019-04-06T13:31:23.410Z,15.30
2019-04-06T13:34:15.910Z,15.49
2019-04-06T13:36:55.742Z,15.32
2019-04-06T13:39:54.260Z,15.92
2019-04-06T13:42:39.206Z,16.56
2019-04-06T14:35:46.730Z,-143.48
2019-04-06T14:40:42.535Z,-143.48
2019-04-06T14:43:29.021Z,-143.48
2019-04-06T14:47:12.897Z,-143.48
2019-04-06T14:49:55.428Z,-143.48
2019-04-06T14:54:01.536Z,-143.48
2019-04-06T15:03:46.240Z,16.48
2019-04-06T15:06:35.173Z,16.81
2019-04-06T15:09:26.018Z,16.99
2019-04-06T17:03:42.357Z,15.32
2019-04-06T17:06:31.713Z,15.19
2019-04-06T17:09:26.891Z,15.13
2019-04-06T17:12:15.919Z,15.05
2019-04-06T17:15:04.554Z,14.94
2019-04-06T17:17:52.246Z,14.82
2019-04-06T17:20:40.281Z,14.77
2019-04-06T17:23:22.384Z,14.68
2019-04-06T17:25:59.380Z,14.58
2019-04-06T17:28:54.929Z,14.52
2019-04-06T17:31:32.413Z,14.46
2019-04-06T17:34:08.916Z,14.26
2019-04-06T17:36:46.523Z,14.08
2019-04-06T17:39:26.096Z,13.91
2019-04-06T17:42:24.627Z,13.78
2019-04-06T17:45:13.129Z,13.61
2019-04-06T17:48:05.373Z,13.50
2019-04-06T17:50:49.798Z,13.32
2019-04-06T17:53:39.811Z,13.15
2019-04-06T17:56:37.633Z,12.97
2019-04-06T17:59:39.303Z,12.81
2019-04-06T18:02:20.447Z,12.63
2019-04-06T18:05:03.375Z,12.59
2019-04-06T18:07:44.231Z,12.47
2019-04-06T18:10:32.603Z,12.34
2019-04-06T18:13:11.925Z,12.24
2019-04-06T18:15:42.733Z,12.10
2019-04-06T18:18:13.063Z,11.97
2019-04-06T18:20:43.608Z,11.88
2019-04-06T18:23:14.185Z,11.84
2019-04-06T18:25:44.504Z,11.76
2019-04-06T18:28:15.017Z,11.70
2019-04-06T19:03:15.422Z,10.58
2019-04-06T19:05:45.309Z,10.44
2019-04-06T19:08:15.914Z,10.46
2019-04-06T19:10:46.689Z,10.31
2019-04-06T19:13:17.022Z,10.30
2019-04-06T19:15:47.852Z,10.28
2019-04-06T19:18:18.467Z,10.19
2019-04-06T19:20:48.964Z,10.13
2019-04-06T19:23:19.486Z,10.13
2019-04-06T19:25:49.858Z,10.09
2019-04-06T19:28:20.128Z,10.06
2019-04-06T19:30:50.968Z,10.05
2019-04-06T19:33:25.145Z,10.00
2019-04-06T19:35:53.556Z,10.03
2019-04-06T19:38:24.617Z,9.96
2019-04-06T19:40:55.247Z,9.93
2019-04-06T19:43:25.459Z,9.75
2019-04-06T19:45:55.585Z,9.67
2019-04-06T19:48:25.900Z,9.61
2019-04-06T19:51:04.595Z,9.64
2019-04-06T19:53:34.891Z,9.68
2019-04-06T19:56:05.462Z,9.61
2019-04-06T19:58:35.882Z,9.54
2019-04-06T20:01:06.853Z,9.55
2019-04-06T20:03:39.236Z,9.43
2019-04-06T20:06:09.165Z,9.32
2019-04-06T20:08:39.486Z,9.21
2019-04-06T20:11:09.883Z,9.10
2019-04-06T20:13:40.202Z,9.04
2019-04-06T20:16:10.900Z,9.00
2019-04-06T20:18:41.234Z,8.89
2019-04-06T20:21:12.768Z,8.80
2019-04-06T20:23:43.072Z,8.78
2019-04-06T20:26:13.865Z,8.77
2019-04-06T20:28:44.587Z,8.75
2019-04-06T20:31:14.957Z,8.60
2019-04-06T20:33:50.895Z,8.58
2019-04-06T20:36:18.244Z,8.51
2019-04-06T21:03:12.622Z,8.21
2019-04-06T21:05:42.996Z,8.19
2019-04-06T21:08:13.322Z,8.14
2019-04-06T21:10:44.037Z,8.05
2019-04-06T21:13:14.469Z,8.08
2019-04-06T21:15:45.091Z,8.03
2019-04-06T21:18:15.508Z,8.05
2019-04-06T21:20:46.310Z,8.01
2019-04-06T21:23:17.198Z,7.89
2019-04-06T21:25:47.585Z,7.94
2019-04-06T21:28:18.181Z,7.91
2019-04-06T21:30:49.056Z,7.84
2019-04-06T21:33:19.761Z,7.87
2019-04-06T21:35:50.197Z,7.81
2019-04-06T21:38:20.420Z,7.81
2019-04-06T21:40:51.793Z,7.82
2019-04-06T21:43:22.448Z,7.82
2019-04-06T21:45:53.293Z,7.76
2019-04-06T21:48:23.710Z,7.64
2019-04-06T21:50:54.049Z,7.55
2019-04-06T21:53:24.355Z,7.54
2019-04-06T21:56:02.197Z,7.60
2019-04-06T21:58:27.162Z,7.64
2019-04-06T22:00:58.629Z,7.63
2019-04-06T22:03:29.039Z,7.58
2019-04-06T22:05:59.479Z,7.50
2019-04-06T22:08:29.786Z,7.49
2019-04-06T22:11:00.418Z,7.48
2019-04-06T22:13:30.745Z,7.42
2019-04-06T22:16:01.037Z,7.28
2019-04-06T22:18:31.304Z,7.21
2019-04-06T22:21:02.203Z,7.32
2019-04-06T22:23:41.675Z,7.29
2019-04-06T22:26:04.551Z,7.30
2019-04-06T22:28:35.067Z,7.17
2019-04-06T22:31:05.523Z,7.10
